Søk
Bilder fra klubbens virksomhet
Tooltip
Landingskonkurranse Lista sommer 2003
Tooltip
GAP-weekend Starmoen 2003
Tooltip
Flytur fra Kjevik til Gullknapp våren 2003
Tooltip
Diverse bilder frem til 2003
Tooltip
Motorbytte LN-NAL
  • Tilfeldig bilde
     
    Opplastet 12-05-2008
    Opplastet 12-05-2008
    Opplastet 22-05-2008
     
  • Siste bilde
     
    Opplastet 27-07-2018
    Opplastet 05-06-2018
    Opplastet 31-10-2017
     
«StartForrige1234NesteSiste»
Side 4 av 4
 
 
METAR
2020/11/26 23:50 ENCN 262350Z AUTO 05005KT 9999 NCD M02/M03 Q1019
TAF
2020/11/26 17:45 TAF AMD TAF AMD ENCN 261742Z 2617/2620 VRB03KT 0200 FZFG VV001 TEMPO 2617/2620 4000 BCFG SCT002
LN-KFK
Operativ VFR-natt
VFR dag
07:53 - 16:37
Brannvakt
Inaktiv
Banner
Banner
Banner
Banner
Banner